createdAt,value
2022-11-18T00:04:21.051Z,4.1
2022-11-18T00:14:42.169Z,3.3
2022-11-18T00:20:53.035Z,3.3
2022-11-18T00:22:56.621Z,3.4
2022-11-18T00:25:03.322Z,4.7
2022-11-18T00:31:14.155Z,3.7
2022-11-18T00:33:17.757Z,3.4
2022-11-18T00:35:21.383Z,3.5
2022-11-18T00:37:24.995Z,3.9
2022-11-18T00:39:31.691Z,4.1
2022-11-18T00:41:35.293Z,3.7
2022-11-18T00:43:38.909Z,3.7
2022-11-18T00:44:42.209Z,3.9
2022-11-18T00:46:45.807Z,4.1
2022-11-18T00:48:49.427Z,4.7
2022-11-18T00:50:53.073Z,3.8
2022-11-18T00:52:59.768Z,4.1
2022-11-18T00:55:03.385Z,4.5
2022-11-18T00:57:06.946Z,3.7
2022-11-18T01:01:14.264Z,4.3
2022-11-18T01:03:17.824Z,4.6
2022-11-18T01:05:21.415Z,4.3
2022-11-18T01:07:43.743Z,3.7
2022-11-18T01:09:31.717Z,3.7
2022-11-18T01:11:35.318Z,3.7
2022-11-18T01:13:38.940Z,4.9
2022-11-18T01:15:42.701Z,3.9
2022-11-18T01:17:46.175Z,4
2022-11-18T01:19:49.776Z,4.4
2022-11-18T01:21:56.470Z,4.3
2022-11-18T01:24:00.102Z,5.3
2022-11-18T01:26:03.642Z,2.9
2022-11-18T01:30:10.860Z,3.6
2022-11-18T01:32:24.374Z,4.4
2022-11-18T01:34:18.102Z,3.1
2022-11-18T01:36:24.922Z,3.8
2022-11-18T01:38:28.357Z,4.3
2022-11-18T01:40:31.992Z,4.2
2022-11-18T01:41:35.298Z,4.3
2022-11-18T01:45:42.539Z,3.5
2022-11-18T01:47:46.159Z,3.7
2022-11-18T01:49:52.831Z,4.4
2022-11-18T01:51:56.447Z,4.7
2022-11-18T01:54:00.100Z,4
2022-11-18T01:56:03.684Z,4.2
2022-11-18T01:58:07.289Z,4
2022-11-18T02:00:10.956Z,4.4
2022-11-18T02:02:14.477Z,4.6
2022-11-18T02:04:21.169Z,4.3
2022-11-18T02:06:24.769Z,3.8
2022-11-18T02:08:28.399Z,3.3
2022-11-18T02:10:32.029Z,5
2022-11-18T02:12:35.668Z,4.2
2022-11-18T02:14:39.240Z,3.7
2022-11-18T02:18:49.487Z,4.6
2022-11-18T02:20:53.125Z,6.5
2022-11-18T02:22:56.763Z,4.1
2022-11-18T02:25:00.361Z,4.6
2022-11-18T02:27:03.969Z,3.6
2022-11-18T02:29:07.576Z,3.6
2022-11-18T02:31:11.179Z,4.5
2022-11-18T02:33:17.845Z,4.5
2022-11-18T02:35:21.475Z,4
2022-11-18T02:37:25.076Z,4.5
2022-11-18T02:38:28.388Z,3.8
2022-11-18T02:40:32.017Z,4
2022-11-18T02:42:35.623Z,4.4
2022-11-18T02:48:49.515Z,3.9
2022-11-18T02:50:53.098Z,4.1
2022-11-18T02:52:56.732Z,4.7
2022-11-18T02:55:00.325Z,4.4
2022-11-18T03:01:14.308Z,3.8
2022-11-18T03:03:17.843Z,5.1
2022-11-18T03:05:21.443Z,4.2
2022-11-18T03:07:25.085Z,4.4
2022-11-18T03:09:28.670Z,3.7
2022-11-18T03:11:32.252Z,4.8
2022-11-18T03:13:35.898Z,3.7
2022-11-18T03:15:42.539Z,4.3
2022-11-18T03:17:46.180Z,3.8
2022-11-18T03:19:49.749Z,4
2022-11-18T03:21:53.378Z,3.4
2022-11-18T03:23:56.986Z,4.1
2022-11-18T03:26:00.603Z,4.6
2022-11-18T03:28:04.187Z,4.2
2022-11-18T03:30:10.862Z,4.9
2022-11-18T03:32:14.416Z,4.2
2022-11-18T03:34:18.050Z,3.5
2022-11-18T03:36:51.838Z,4.4
2022-11-18T03:40:55.379Z,3.7
2022-11-18T03:45:05.671Z,4.2
2022-11-18T03:47:09.269Z,3.4
2022-11-18T03:49:12.865Z,4
2022-11-18T03:51:16.452Z,3.8
2022-11-18T03:53:20.079Z,4.2
2022-11-18T03:55:23.649Z,5.4
2022-11-18T04:01:37.574Z,4.6
2022-11-18T04:03:41.119Z,3.9
2022-11-18T04:05:44.722Z,4.5
2022-11-18T04:07:48.338Z,3.6
2022-11-18T04:09:51.935Z,4.3
2022-11-18T04:11:58.678Z,4.2
2022-11-18T04:14:02.212Z,4.4
2022-11-18T04:16:05.820Z,5.1
2022-11-18T04:18:09.411Z,4.5
2022-11-18T04:20:13.016Z,4.5
2022-11-18T04:22:16.608Z,4.4
2022-11-18T04:26:26.886Z,4.7
2022-11-18T04:28:30.488Z,4
2022-11-18T04:30:35.656Z,5
2022-11-18T04:31:38.997Z,4.3
2022-11-18T04:33:42.521Z,4.4
2022-11-18T04:35:46.133Z,3.8
2022-11-18T04:37:49.744Z,4.3
2022-11-18T04:39:56.426Z,5
2022-11-18T04:42:47.878Z,5.5
2022-11-18T04:44:03.640Z,4.6
2022-11-18T04:46:17.853Z,5.2
2022-11-18T04:48:10.827Z,4.1
2022-11-18T04:50:14.524Z,4.7
2022-11-18T04:52:18.027Z,5.2
2022-11-18T04:54:24.700Z,5.2
2022-11-18T04:56:28.301Z,5.1
2022-11-18T04:58:31.933Z,5.1
2022-11-18T05:04:42.719Z,5.3
2022-11-18T05:08:52.978Z,5.1
2022-11-18T05:10:56.594Z,5.5
2022-11-18T05:15:03.826Z,5.6
2022-11-18T05:17:07.387Z,5.1
2022-11-18T05:19:11.002Z,5.4
2022-11-18T05:21:14.603Z,4.8
2022-11-18T05:23:21.271Z,5.4
2022-11-18T05:25:24.857Z,5.8
2022-11-18T05:27:28.485Z,6.3
2022-11-18T05:28:31.791Z,4.7
2022-11-18T05:30:35.426Z,6.4
2022-11-18T05:34:42.650Z,5.6
2022-11-18T05:38:52.893Z,5.9
2022-11-18T05:40:56.477Z,5.5
2022-11-18T05:43:00.107Z,4.8
2022-11-18T05:45:03.678Z,5
2022-11-18T05:49:10.848Z,6.3
2022-11-18T05:51:17.539Z,5.9
2022-11-18T05:53:21.106Z,4.9
2022-11-18T05:55:24.704Z,6.1
2022-11-18T05:59:31.914Z,5.7
2022-11-18T06:01:35.454Z,5.4
2022-11-18T06:03:39.115Z,6.6
2022-11-18T06:05:45.756Z,6.7
2022-11-18T06:07:49.333Z,6.1
2022-11-18T06:09:52.968Z,6.5
2022-11-18T06:11:56.549Z,6.1
2022-11-18T06:14:00.147Z,6.3
2022-11-18T06:16:03.780Z,5.7
2022-11-18T06:18:07.338Z,7.1
2022-11-18T06:20:13.962Z,7.1
2022-11-18T06:22:17.559Z,6.3
2022-11-18T06:24:21.182Z,6.3
2022-11-18T06:25:24.489Z,6.6
2022-11-18T06:27:28.133Z,6
2022-11-18T06:29:31.743Z,6.4
2022-11-18T06:31:35.313Z,6.1
2022-11-18T06:33:41.937Z,6.8
2022-11-18T06:35:45.578Z,6.2
2022-11-18T06:39:52.731Z,6.6
2022-11-18T06:50:13.782Z,6
2022-11-18T06:52:17.415Z,6.7
2022-11-18T06:54:21.001Z,7.1
2022-11-18T06:56:24.595Z,6.4
2022-11-18T06:58:28.209Z,6
2022-11-18T07:00:44.314Z,6.8
2022-11-18T07:06:45.671Z,6.9
2022-11-18T07:10:52.897Z,8
2022-11-18T07:17:06.790Z,7.7
2022-11-18T07:21:13.790Z,7.8
2022-11-18T07:23:32.081Z,8.4
2022-11-18T07:25:35.641Z,7.5
2022-11-18T07:27:39.285Z,8.1
2022-11-18T07:29:45.906Z,8
2022-11-18T07:31:49.528Z,8.6
2022-11-18T07:33:53.136Z,8.1
2022-11-18T07:35:56.737Z,8.5
2022-11-18T07:38:00.371Z,8.4
2022-11-18T07:40:03.940Z,8
2022-11-18T07:42:07.543Z,8.2
2022-11-18T07:44:14.230Z,9.7
2022-11-18T07:46:17.828Z,7.7
2022-11-18T07:48:21.440Z,9.5
2022-11-18T07:50:25.019Z,8.7
2022-11-18T07:52:28.628Z,9.4
2022-11-18T07:56:35.847Z,8.8
2022-11-18T07:58:42.528Z,10.1
2022-11-18T08:00:46.145Z,12.3
2022-11-18T08:02:49.713Z,9.6
2022-11-18T08:04:53.382Z,25.6
2022-11-18T08:06:57.005Z,14.6
2022-11-18T08:09:00.555Z,57.3
2022-11-18T08:11:18.855Z,73.5
2022-11-18T08:13:56.278Z,72.3
2022-11-18T08:15:39.162Z,15.1
2022-11-18T08:17:18.025Z,9.6
2022-11-18T08:20:24.754Z,8.3
2022-11-18T08:24:31.946Z,10.1
2022-11-18T08:26:38.628Z,9
2022-11-18T08:28:42.233Z,8.5
2022-11-18T08:30:45.797Z,8.5
2022-11-18T08:32:49.396Z,15.2
2022-11-18T08:34:53.009Z,16.1
2022-11-18T08:36:56.612Z,7.5
2022-11-18T08:39:00.225Z,10.4
2022-11-18T08:41:06.859Z,9.7
2022-11-18T08:43:10.493Z,9.1
2022-11-18T08:45:14.060Z,9.7
2022-11-18T08:47:17.682Z,7.9
2022-11-18T08:49:21.555Z,12.2
2022-11-18T08:51:24.881Z,9.2
2022-11-18T08:53:28.485Z,12.8
2022-11-18T08:55:35.169Z,8.2
2022-11-18T08:57:38.745Z,7.2
2022-11-18T08:59:42.355Z,9
2022-11-18T09:01:46.096Z,7.2
2022-11-18T09:03:49.520Z,5.6
2022-11-18T09:05:53.115Z,5.9
2022-11-18T09:07:56.687Z,6
2022-11-18T09:10:03.369Z,5
2022-11-18T09:12:06.943Z,5.1
2022-11-18T09:15:15.400Z,7.1
2022-11-18T09:17:18.110Z,5.6
2022-11-18T09:19:46.775Z,5.3
2022-11-18T09:21:25.251Z,3.5
2022-11-18T09:23:31.887Z,3.1
2022-11-18T09:25:35.429Z,5
2022-11-18T09:27:38.993Z,4
2022-11-18T09:29:42.563Z,3.9
2022-11-18T09:31:46.104Z,3
2022-11-18T09:33:49.674Z,3.1
2022-11-18T09:35:53.215Z,3.9
2022-11-18T09:37:59.858Z,3.5
2022-11-18T09:40:03.384Z,4
2022-11-18T09:42:06.928Z,3.2
2022-11-18T09:44:10.464Z,2.8
2022-11-18T09:46:14.024Z,3.3
2022-11-18T09:48:17.580Z,2.4
2022-11-18T09:50:47.831Z,2.7
2022-11-18T09:52:32.754Z,3.3
2022-11-18T09:54:31.238Z,2.5
2022-11-18T09:56:34.818Z,3.3
2022-11-18T09:58:38.278Z,2.7
2022-11-18T10:00:41.830Z,2.5
2022-11-18T10:04:48.886Z,3.1
2022-11-18T10:08:58.965Z,2
2022-11-18T10:12:05.752Z,3.6
2022-11-18T10:14:09.289Z,2.5
2022-11-18T10:16:12.792Z,2.8
2022-11-18T10:18:31.760Z,2.6
2022-11-18T10:24:29.893Z,2.2
2022-11-18T10:26:34.951Z,2.5
2022-11-18T10:28:38.405Z,2.3
2022-11-18T10:34:51.977Z,3.1
2022-11-18T10:38:58.971Z,2.4
2022-11-18T10:45:09.404Z,1.5
2022-11-18T10:51:22.961Z,1.9
2022-11-18T10:55:29.907Z,2.3
2022-11-18T10:57:33.365Z,2.4
2022-11-18T10:59:36.824Z,2.2
2022-11-18T11:01:40.399Z,2.1
2022-11-18T11:03:46.841Z,1.9
2022-11-18T11:05:50.292Z,2
2022-11-18T11:10:17.670Z,2
2022-11-18T11:12:21.127Z,2.2
2022-11-18T11:14:24.617Z,1.8
2022-11-18T11:16:31.233Z,2.2
2022-11-18T11:18:34.606Z,2.6
2022-11-18T11:20:38.132Z,2.4
2022-11-18T11:22:41.585Z,2.3
2022-11-18T11:24:45.050Z,2.5
2022-11-18T11:28:52.026Z,2.6
2022-11-18T11:30:58.576Z,2.8
2022-11-18T11:33:02.085Z,2.7
2022-11-18T11:35:05.571Z,1.8
2022-11-18T11:37:10.970Z,2
2022-11-18T11:39:12.517Z,2.2
2022-11-18T11:41:28.938Z,2.6
2022-11-18T11:45:26.052Z,2.4
2022-11-18T11:47:29.529Z,2.2
2022-11-18T11:51:36.529Z,2.4
2022-11-18T11:55:43.520Z,2.3
2022-11-18T11:57:47.001Z,2.4
2022-11-18T12:01:57.163Z,2.8
2022-11-18T12:04:00.636Z,2.9
2022-11-18T12:05:03.989Z,3.4
2022-11-18T12:07:07.553Z,2.8
2022-11-18T12:09:11.015Z,3
2022-11-18T12:11:14.506Z,2.6
2022-11-18T12:13:21.585Z,2.3
2022-11-18T12:17:28.647Z,3.5
2022-11-18T12:23:39.233Z,3.7
2022-11-18T12:25:42.792Z,3.3
2022-11-18T12:27:49.386Z,3.8
2022-11-18T12:29:52.989Z,3.2
2022-11-18T12:34:00.007Z,3.4
2022-11-18T12:36:03.620Z,4.1
2022-11-18T12:38:07.111Z,3.9
2022-11-18T12:40:10.643Z,3.6
2022-11-18T12:42:17.265Z,4
2022-11-18T12:44:20.808Z,4.1
2022-11-18T12:46:24.346Z,3.8
2022-11-18T12:48:28.063Z,3.9
2022-11-18T12:50:31.435Z,3.7
2022-11-18T12:52:35.013Z,3.7
2022-11-18T12:54:38.548Z,5.4
2022-11-18T12:56:45.346Z,4.9
2022-11-18T12:58:48.727Z,4.3
2022-11-18T13:01:55.566Z,4.1
2022-11-18T13:03:59.116Z,3.2
2022-11-18T13:08:06.258Z,3.9
2022-11-18T13:10:12.864Z,4.4
2022-11-18T13:12:16.399Z,3.8
2022-11-18T13:14:19.939Z,3.3
2022-11-18T13:16:23.497Z,3.3
2022-11-18T13:18:27.013Z,3.7
2022-11-18T13:20:30.573Z,3.9
2022-11-18T13:22:34.120Z,3.9
2022-11-18T13:24:40.728Z,3.5
2022-11-18T13:26:44.286Z,4
2022-11-18T13:28:47.827Z,3.6
2022-11-18T13:30:51.397Z,4.5
2022-11-18T13:32:54.967Z,4.4
2022-11-18T13:34:58.507Z,3.8
2022-11-18T13:37:02.123Z,4.4
2022-11-18T13:39:08.666Z,6.7
2022-11-18T13:43:15.784Z,4.8
2022-11-18T13:45:19.340Z,6.4
2022-11-18T13:47:22.895Z,6.4
2022-11-18T13:49:26.509Z,5.2
2022-11-18T13:51:30.049Z,4.3
2022-11-18T13:53:36.660Z,12.3
2022-11-18T13:55:40.224Z,4.5
2022-11-18T13:57:43.803Z,6
2022-11-18T13:59:29.026Z,5.7
2022-11-18T14:04:57.789Z,5
2022-11-18T14:07:04.473Z,6
2022-11-18T14:09:08.031Z,4.7
2022-11-18T14:11:11.595Z,5.3
2022-11-18T14:13:15.163Z,5.8
2022-11-18T14:15:18.748Z,5.2
2022-11-18T14:17:22.297Z,4.4
2022-11-18T14:19:25.850Z,5.1
2022-11-18T14:21:32.521Z,5.2
2022-11-18T14:23:36.067Z,4.8
2022-11-18T14:25:39.679Z,5.6
2022-11-18T14:27:43.226Z,4.4
2022-11-18T14:29:46.830Z,5.3
2022-11-18T14:31:50.353Z,5
2022-11-18T14:33:53.950Z,5.1
2022-11-18T14:36:00.613Z,5.8
2022-11-18T14:38:35.417Z,6.4
2022-11-18T14:40:07.835Z,5.5
2022-11-18T14:42:11.319Z,9.6
2022-11-18T14:44:14.893Z,5.1
2022-11-18T14:46:18.450Z,7.6
2022-11-18T14:48:22.039Z,5.6
2022-11-18T14:50:28.695Z,7.4
2022-11-18T14:52:32.272Z,8.8
2022-11-18T14:54:35.851Z,7.3
2022-11-18T14:59:03.857Z,5.6
2022-11-18T15:01:07.527Z,5.9
2022-11-18T15:09:24.812Z,5.9
2022-11-18T15:11:28.373Z,5.6
2022-11-18T15:13:31.955Z,5.6
2022-11-18T15:17:42.185Z,6.5
2022-11-18T15:19:45.760Z,5.3
2022-11-18T15:23:52.945Z,5.8
2022-11-18T15:25:56.491Z,7.5
2022-11-18T15:30:03.673Z,7
2022-11-18T15:34:13.859Z,7.3
2022-11-18T15:42:29.063Z,11.4
2022-11-18T15:44:32.635Z,11
2022-11-18T15:46:39.273Z,12.9
2022-11-18T15:48:42.927Z,13.3
2022-11-18T15:50:46.423Z,12.6
2022-11-18T15:51:49.813Z,13.4
2022-11-18T16:00:07.200Z,15
2022-11-18T16:04:14.372Z,13.6
2022-11-18T16:06:17.972Z,15.2
2022-11-18T16:08:21.551Z,15.4
2022-11-18T16:10:25.097Z,16.7
2022-11-18T16:12:28.707Z,15.5
2022-11-18T16:18:42.543Z,15
2022-11-18T16:20:46.116Z,15.7
2022-11-18T16:22:49.688Z,14.2
2022-11-18T16:24:54.840Z,16.1
2022-11-18T16:33:12.850Z,13.3
2022-11-18T16:35:16.421Z,11.3
2022-11-18T16:39:23.601Z,11.6
2022-11-18T16:43:33.814Z,10.9
2022-11-18T16:45:37.403Z,10.1
2022-11-18T16:48:44.333Z,10.2
2022-11-18T16:50:49.912Z,12.5
2022-11-18T16:57:01.769Z,10.7
2022-11-18T17:03:12.540Z,10.9
2022-11-18T17:13:33.612Z,10.5
2022-11-18T17:15:37.224Z,10.6
2022-11-18T17:17:40.804Z,10.7
2022-11-18T17:19:44.400Z,11.2
2022-11-18T17:21:48.016Z,11.5
2022-11-18T17:23:51.620Z,11.1
2022-11-18T17:25:58.270Z,10.9
2022-11-18T17:28:01.895Z,10.9
2022-11-18T17:30:05.491Z,11.1
2022-11-18T17:32:09.113Z,11.4
2022-11-18T17:34:12.710Z,12.4
2022-11-18T17:36:16.306Z,11.4
2022-11-18T17:38:19.925Z,11.3
2022-11-18T17:40:26.600Z,15.4
2022-11-18T17:42:30.189Z,13.1
2022-11-18T17:44:33.832Z,14
2022-11-18T17:45:37.172Z,14.4
2022-11-18T17:49:44.387Z,13
2022-11-18T17:51:47.978Z,13.6
2022-11-18T17:53:54.654Z,13.7
2022-11-18T17:56:07.494Z,13.7
2022-11-18T17:58:01.855Z,13.6
2022-11-18T18:00:39.376Z,12.5
2022-11-18T18:02:09.171Z,13.7
2022-11-18T18:04:12.772Z,13.9
2022-11-18T18:06:16.355Z,13
2022-11-18T18:08:33.436Z,14.4
2022-11-18T18:10:26.663Z,14.9
2022-11-18T18:12:30.254Z,16.1
2022-11-18T18:14:33.884Z,15.3
2022-11-18T18:18:41.107Z,13.4
2022-11-18T18:22:52.401Z,15.1
2022-11-18T18:25:29.369Z,17.1
2022-11-18T18:26:58.670Z,12.9
2022-11-18T18:29:02.298Z,14.9
2022-11-18T18:31:05.955Z,13.7
2022-11-18T18:33:09.522Z,13.1
2022-11-18T18:35:13.215Z,13.2
2022-11-18T18:41:27.104Z,13.9
2022-11-18T18:43:59.352Z,15.3
2022-11-18T18:45:54.759Z,12.1
2022-11-18T18:47:58.384Z,14.3
2022-11-18T18:50:08.387Z,14.2
2022-11-18T18:52:08.752Z,13.6
2022-11-18T18:56:15.991Z,13.9
2022-11-18T19:00:23.210Z,14.4
2022-11-18T19:04:33.562Z,13.9
2022-11-18T19:06:54.916Z,14
2022-11-18T19:08:40.843Z,12.6
2022-11-18T19:10:44.452Z,14.8
2022-11-18T19:12:48.121Z,15.6
2022-11-18T19:14:51.849Z,14.3
2022-11-18T19:16:55.372Z,15.8
2022-11-18T19:19:02.102Z,14
2022-11-18T19:21:05.767Z,14
2022-11-18T19:23:10.687Z,15.4
2022-11-18T19:25:13.026Z,12.7
2022-11-18T19:27:16.713Z,12.7
2022-11-18T19:29:24.348Z,13.7
2022-11-18T19:31:23.960Z,13.6
2022-11-18T19:33:30.665Z,14.6
2022-11-18T19:35:34.294Z,12.7
2022-11-18T19:37:37.939Z,13.8
2022-11-18T19:38:41.291Z,13.4
2022-11-18T19:40:44.913Z,13.3
2022-11-18T19:42:48.551Z,12.6
2022-11-18T19:44:52.252Z,11.5
2022-11-18T19:46:58.936Z,12
2022-11-18T19:49:02.564Z,10.3
2022-11-18T19:51:06.229Z,12.3
2022-11-18T19:53:09.836Z,11.5
2022-11-18T19:55:13.481Z,11.8
2022-11-18T19:57:17.129Z,11.9
2022-11-18T19:59:21.069Z,10.2
2022-11-18T20:01:27.524Z,11.7
2022-11-18T20:03:31.076Z,10.2
2022-11-18T20:05:34.685Z,10.7
2022-11-18T20:07:38.437Z,10.8
2022-11-18T20:11:45.630Z,11.7
2022-11-18T20:13:49.349Z,12.2
2022-11-18T20:15:56.031Z,12.2
2022-11-18T20:17:59.675Z,11.4
2022-11-18T20:20:03.427Z,12.1
2022-11-18T20:22:07.087Z,14.1
2022-11-18T20:24:10.688Z,13
2022-11-18T20:28:17.925Z,12.4
2022-11-18T20:32:28.277Z,13.8
2022-11-18T20:34:31.851Z,14.5
2022-11-18T20:35:35.209Z,14.3
2022-11-18T20:37:38.883Z,13.1
2022-11-18T20:41:46.182Z,15.5
2022-11-18T20:43:52.840Z,14.7
2022-11-18T20:45:56.475Z,14.2
2022-11-18T20:48:00.147Z,14.4
2022-11-18T20:50:03.771Z,13.4
2022-11-18T20:52:07.417Z,13.4
2022-11-18T20:54:11.073Z,14.2
2022-11-18T20:56:14.759Z,14.8
2022-11-18T20:58:21.471Z,14.9
2022-11-18T21:00:25.116Z,16.8
2022-11-18T21:02:28.741Z,16.7
2022-11-18T21:04:32.405Z,16.2
2022-11-18T21:06:36.113Z,14.9
2022-11-18T21:08:39.750Z,15.4
2022-11-18T21:10:44.193Z,16.1
2022-11-18T21:12:51.704Z,16.8
2022-11-18T21:14:53.874Z,16.9
2022-11-18T21:16:57.493Z,15.6
2022-11-18T21:21:04.752Z,15.3
2022-11-18T21:23:09.473Z,17.2
2022-11-18T21:25:12.136Z,16
2022-11-18T21:27:19.042Z,18.8
2022-11-18T21:29:22.705Z,17.6
2022-11-18T21:31:26.313Z,20.6
2022-11-18T21:32:29.681Z,18.7
2022-11-18T21:34:33.389Z,49.7
2022-11-18T21:36:42.730Z,19.9
2022-11-18T21:38:40.690Z,16.6
2022-11-18T21:40:47.357Z,19.8
2022-11-18T21:42:51.018Z,17.2
2022-11-18T21:49:02.063Z,16.6
2022-11-18T21:51:05.750Z,17.7
2022-11-18T21:53:09.356Z,19.6
2022-11-18T21:57:19.882Z,17.6
2022-11-18T21:59:23.543Z,16
2022-11-18T22:01:27.284Z,16.1
2022-11-18T22:03:31.033Z,13.6
2022-11-18T22:05:34.781Z,14.7
2022-11-18T22:07:38.431Z,15.6
2022-11-18T22:13:52.454Z,21.3
2022-11-18T22:18:05.164Z,13.3
2022-11-18T22:20:39.122Z,14
2022-11-18T22:22:07.187Z,13
2022-11-18T22:24:44.845Z,15
2022-11-18T22:26:19.171Z,13.7
2022-11-18T22:28:26.325Z,15.4
2022-11-18T22:32:50.762Z,16.7
2022-11-18T22:34:54.497Z,13.5
2022-11-18T22:37:01.390Z,14.1
2022-11-18T22:39:05.133Z,14.8
2022-11-18T22:41:08.733Z,15.4
2022-11-18T22:43:12.402Z,13
2022-11-18T22:45:16.126Z,12.5
2022-11-18T22:47:19.758Z,13.5
2022-11-18T22:49:23.428Z,11.7
2022-11-18T22:51:30.193Z,14.2
2022-11-18T22:53:33.836Z,14.5
2022-11-18T22:55:37.488Z,13.8
2022-11-18T22:57:41.296Z,13.7
2022-11-18T22:59:44.891Z,14
2022-11-18T23:01:48.615Z,14
2022-11-18T23:03:52.282Z,13.8
2022-11-18T23:06:00.045Z,14.8
2022-11-18T23:10:06.636Z,14.3
2022-11-18T23:12:10.388Z,14.2
2022-11-18T23:14:14.106Z,13.9
2022-11-18T23:16:17.785Z,14.5
2022-11-18T23:18:21.510Z,18
2022-11-18T23:20:28.371Z,16.7
2022-11-18T23:22:32.052Z,15.7
2022-11-18T23:24:35.756Z,15.7
2022-11-18T23:27:42.863Z,14.4
2022-11-18T23:33:57.051Z,15.8
2022-11-18T23:36:00.785Z,15.8
2022-11-18T23:38:04.543Z,13.2
2022-11-18T23:40:08.318Z,18.6
2022-11-18T23:42:11.986Z,24.7
2022-11-18T23:44:15.674Z,16.4
2022-11-18T23:48:26.305Z,15.2
2022-11-18T23:52:33.768Z,18.2
2022-11-18T23:54:37.404Z,15
2022-11-18T23:58:44.818Z,14.3
